Time;durP1;ratioP1;P1;durP2;ratioP2;P2;SDS_P1;SDS_P2;PMS_P1;PMS_P2;Temp;Humidity;BMP_temperature;BMP_pressure;BME280_temperature;BME280_humidity;BME280_pressure;Samples;Min_cycle;Max_cycle;Signal;HPM_P1;HPM_P2
2022/10/04 00:01:45;;;;;;;11.18;2.60;;;;;;;21.74;53.80;101405.00;5004390;28;20565;-50
2022/10/04 00:04:38;;;;;;;9.93;2.30;;;;;;;21.77;53.75;101399.03;5014277;28;20632;-48
2022/10/04 00:07:19;;;;;;;6.90;2.40;;;;;;;21.66;54.67;101395.44;5000182;28;20038;-50
2022/10/04 00:10:15;;;;;;;9.82;2.72;;;;;;;21.64;54.56;101394.03;4993915;28;20034;-51
2022/10/04 00:12:49;;;;;;;9.50;3.15;;;;;;;21.48;54.43;101390.44;5010606;28;20083;-51
2022/10/04 00:15:29;;;;;;;7.43;2.92;;;;;;;21.27;54.80;101392.22;5016612;28;20038;-50
2022/10/04 00:18:39;;;;;;;8.07;2.60;;;;;;;21.13;55.57;101389.13;5002338;28;20058;-47
2022/10/04 00:21:07;;;;;;;8.70;2.65;;;;;;;20.93;55.90;101389.00;5014082;28;20033;-50
2022/10/04 00:23:37;;;;;;;5.82;2.50;;;;;;;21.13;55.81;101389.13;4998855;28;20056;-49
2022/10/04 00:26:09;;;;;;;6.78;2.42;;;;;;;21.13;55.47;101391.84;5002356;28;20554;-50
2022/10/04 00:28:36;;;;;;;6.82;2.30;;;;;;;21.17;55.50;101384.00;4995438;28;20386;-50
2022/10/04 00:31:15;;;;;;;4.68;2.22;;;;;;;20.93;55.89;101392.56;5006606;28;20027;-50
2022/10/04 00:33:47;;;;;;;7.05;2.35;;;;;;;20.65;56.30;101390.97;5033624;28;20104;-51
2022/10/04 00:36:28;;;;;;;7.10;2.90;;;;;;;20.78;56.15;101390.53;5028744;28;20072;-48
2022/10/04 00:39:06;;;;;;;10.00;2.70;;;;;;;20.91;56.04;101386.53;5033623;28;20025;-50
2022/10/04 00:41:48;;;;;;;6.32;3.03;;;;;;;20.99;55.47;101388.78;4994235;28;20386;-49
2022/10/04 00:44:21;;;;;;;7.05;2.80;;;;;;;20.74;55.97;101394.03;4994018;28;20086;-50
2022/10/04 00:46:51;;;;;;;8.57;2.70;;;;;;;20.83;55.67;101395.22;4993256;28;20038;-50
2022/10/04 00:49:22;;;;;;;9.45;2.60;;;;;;;20.60;55.83;101396.38;5002873;28;20050;-50
2022/10/04 00:51:55;;;;;;;5.57;2.50;;;;;;;20.55;56.13;101399.88;4992102;28;20023;-50
2022/10/04 00:54:52;;;;;;;4.13;2.60;;;;;;;20.45;56.66;101391.59;5005814;28;20108;-50
2022/10/04 00:57:38;;;;;;;9.98;2.83;;;;;;;20.48;56.68;101395.72;5013926;28;20042;-50
2022/10/04 01:00:16;;;;;;;11.25;2.83;;;;;;;20.38;57.06;101399.16;5008467;28;20112;-49
2022/10/04 01:02:45;;;;;;;8.75;3.13;;;;;;;20.43;56.61;101396.47;5007861;28;20034;-51
2022/10/04 01:05:25;;;;;;;8.43;2.80;;;;;;;20.14;57.84;101398.63;5000968;28;20113;-51
2022/10/04 01:07:57;;;;;;;5.85;2.70;;;;;;;19.92;58.55;101395.13;4994455;28;20034;-49
2022/10/04 01:10:35;;;;;;;6.25;2.50;;;;;;;20.01;58.49;101399.84;4993757;28;20084;-48
2022/10/04 01:13:24;;;;;;;6.82;2.70;;;;;;;20.02;58.22;101393.34;5006714;28;20037;-50
2022/10/04 01:16:02;;;;;;;10.48;3.08;;;;;;;19.95;58.53;101400.06;5032631;28;20026;-49
2022/10/04 01:18:33;;;;;;;7.07;2.45;;;;;;;20.06;58.74;101404.53;5012330;28;20058;-51
2022/10/04 01:21:15;;;;;;;9.63;2.47;;;;;;;20.01;58.98;101399.84;5000204;28;20050;-49
2022/10/04 01:23:46;;;;;;;7.75;2.90;;;;;;;19.93;59.33;101402.19;5008208;28;20057;-50
2022/10/04 01:26:30;;;;;;;8.25;3.20;;;;;;;19.66;60.31;101402.19;4993477;28;20114;-48
2022/10/04 01:29:21;;;;;;;7.38;2.90;;;;;;;19.55;60.66;101401.19;4993714;28;20037;-48
2022/10/04 01:31:53;;;;;;;7.50;2.83;;;;;;;19.64;60.74;101407.03;5007429;28;20040;-49
2022/10/04 01:34:22;;;;;;;9.38;2.67;;;;;;;19.68;60.66;101411.69;5012410;28;20044;-50
2022/10/04 01:36:51;;;;;;;8.68;3.10;;;;;;;19.51;61.29;101405.47;5008157;28;20058;-50
2022/10/04 01:39:20;;;;;;;6.70;2.88;;;;;;;19.46;61.40;101410.84;4993494;28;20037;-50
2022/10/04 01:42:28;;;;;;;5.05;2.72;;;;;;;19.70;60.61;101414.16;4992868;28;20077;-50
2022/10/04 01:45:01;;;;;;;9.60;3.20;;;;;;;19.89;59.87;101418.19;4988344;28;20668;-50
2022/10/04 01:47:43;;;;;;;9.50;3.40;;;;;;;19.60;60.81;101414.88;4996953;28;20036;-46
2022/10/04 01:50:30;;;;;;;7.35;2.92;;;;;;;19.42;61.53;101415.94;5012671;28;20355;-49
2022/10/04 01:53:19;;;;;;;11.88;3.47;;;;;;;19.52;61.16;101407.94;5015416;28;20033;-48
2022/10/04 01:55:50;;;;;;;10.48;3.20;;;;;;;19.48;61.51;101408.69;5001447;28;20034;-51
2022/10/04 01:58:34;;;;;;;10.77;3.20;;;;;;;19.16;62.41;101408.53;5012331;28;20037;-48
2022/10/04 02:01:26;;;;;;;13.00;3.55;;;;;;;19.46;61.38;101413.56;5019773;23;20184;-49
2022/10/04 02:04:02;;;;;;;8.27;2.80;;;;;;;19.28;61.69;101411.13;5012189;28;20034;-51
2022/10/04 02:06:34;;;;;;;13.07;3.40;;;;;;;19.19;62.16;101408.00;5012310;28;20029;-50
2022/10/04 02:09:06;;;;;;;7.20;2.88;;;;;;;19.32;61.85;101406.84;5012352;28;20041;-50
2022/10/04 02:11:35;;;;;;;7.80;2.88;;;;;;;19.41;61.38;101417.00;5012165;28;20076;-50
2022/10/04 02:14:02;;;;;;;7.00;3.05;;;;;;;19.35;61.21;101406.34;5003342;28;20505;-50
2022/10/04 02:16:29;;;;;;;7.97;2.45;;;;;;;19.24;61.77;101411.63;5012180;28;20087;-49
2022/10/04 02:18:56;;;;;;;8.73;3.72;;;;;;;19.35;61.05;101414.47;5023681;28;20543;-46
2022/10/04 02:21:23;;;;;;;9.57;2.97;;;;;;;19.20;61.59;101415.91;5015035;28;20057;-50
2022/10/04 02:23:52;;;;;;;9.63;3.63;;;;;;;19.25;61.85;101426.84;5011714;28;20030;-51
2022/10/04 02:26:19;;;;;;;6.88;3.13;;;;;;;19.34;61.51;101429.13;5012444;28;20108;-48
2022/10/04 02:28:46;;;;;;;8.70;3.08;;;;;;;19.37;61.59;101434.88;5029628;28;20032;-50
2022/10/04 02:33:59;;;;;;;7.72;3.45;;;;;;;19.25;61.96;101432.25;4992221;28;20034;-50
2022/10/04 02:36:29;;;;;;;8.50;3.28;;;;;;;19.17;61.93;101443.56;4992315;28;20088;-50
2022/10/04 02:39:00;;;;;;;10.20;3.33;;;;;;;19.32;61.55;101434.81;4999415;28;20029;-50
2022/10/04 02:41:32;;;;;;;6.60;2.63;;;;;;;19.30;61.79;101453.22;5011810;28;20046;-50
2022/10/04 02:44:16;;;;;;;6.63;3.08;;;;;;;19.23;61.49;101447.97;5011602;28;20077;-50
2022/10/04 02:46:54;;;;;;;9.63;2.72;;;;;;;19.20;61.61;101453.91;5012010;28;20548;-51
2022/10/04 02:49:48;;;;;;;5.35;2.83;;;;;;;19.39;60.90;101442.78;5012083;28;20080;-50
2022/10/04 02:52:15;;;;;;;8.85;3.28;;;;;;;19.25;60.50;101451.25;5007346;28;20109;-49
2022/10/04 02:54:51;;;;;;;6.45;3.00;;;;;;;19.16;61.61;101457.38;5011608;28;20025;-50
2022/10/04 02:57:22;;;;;;;10.30;3.33;;;;;;;19.21;61.43;101462.84;5011536;28;20541;-50
2022/10/04 02:59:49;;;;;;;8.40;3.35;;;;;;;19.12;61.84;101456.22;5015616;28;20140;-49
2022/10/04 03:02:30;;;;;;;7.47;3.30;;;;;;;19.12;61.63;101459.75;5015703;28;20037;-48
2022/10/04 03:05:04;;;;;;;7.78;3.10;;;;;;;19.02;62.35;101458.78;5015862;28;20062;-49
2022/10/04 03:07:33;;;;;;;11.07;3.47;;;;;;;19.02;62.83;101461.47;5015561;28;20030;-50
2022/10/04 03:10:01;;;;;;;10.00;3.25;;;;;;;18.83;63.26;101455.50;5015535;28;20225;-50
2022/10/04 03:12:28;;;;;;;6.53;3.10;;;;;;;18.95;63.38;101461.66;5014847;28;20036;-49
2022/10/04 03:14:54;;;;;;;8.18;3.35;;;;;;;18.97;63.00;101451.38;5015554;28;20075;-49
2022/10/04 03:17:21;;;;;;;11.52;3.53;;;;;;;18.87;63.12;101454.72;5014029;28;20025;-49
2022/10/04 03:19:49;;;;;;;7.13;3.30;;;;;;;18.82;63.16;101454.66;5015531;28;20026;-48
2022/10/04 03:22:16;;;;;;;7.85;3.05;;;;;;;18.83;62.41;101453.59;5013969;28;20080;-48
2022/10/04 03:24:49;;;;;;;8.65;3.28;;;;;;;18.66;62.27;101456.25;5015403;28;20022;-50
2022/10/04 03:27:20;;;;;;;6.55;3.03;;;;;;;18.72;61.80;101455.31;5014226;28;20049;-46
2022/10/04 03:29:49;;;;;;;7.38;2.85;;;;;;;18.66;61.72;101456.25;5013989;28;20034;-46
2022/10/04 03:32:17;;;;;;;9.50;2.88;;;;;;;18.69;61.26;101461.22;5013787;28;20021;-46
2022/10/04 03:34:54;;;;;;;8.85;3.25;;;;;;;18.46;61.68;101450.47;5014488;28;20033;-50
2022/10/04 03:37:21;;;;;;;7.78;2.90;;;;;;;18.60;61.02;101453.69;5014807;28;20076;-46
2022/10/04 03:39:53;;;;;;;7.88;2.72;;;;;;;18.42;62.70;101452.84;5013874;28;20049;-49
2022/10/04 03:42:29;;;;;;;11.10;3.65;;;;;;;18.34;64.35;101457.84;5013995;28;20105;-48
2022/10/04 03:45:14;;;;;;;8.65;3.58;;;;;;;18.37;64.73;101455.44;5013621;28;20053;-50
2022/10/04 03:47:45;;;;;;;11.40;5.95;;;;;;;18.18;65.83;101468.38;5015179;28;20037;-48
2022/10/04 03:50:25;;;;;;;11.57;5.20;;;;;;;18.19;66.16;101461.06;5014081;28;20062;-48
2022/10/04 03:52:58;;;;;;;8.07;4.00;;;;;;;18.15;66.48;101466.13;5014459;28;20394;-49
2022/10/04 03:55:37;;;;;;;11.77;3.60;;;;;;;18.14;66.60;101472.63;5045576;23;20178;-49
2022/10/04 03:58:05;;;;;;;12.25;4.10;;;;;;;18.18;66.46;101468.38;5053847;28;20032;-48
2022/10/04 04:00:33;;;;;;;7.28;3.72;;;;;;;18.14;66.36;101475.34;5034936;28;20115;-48
2022/10/04 04:03:05;;;;;;;7.88;3.55;;;;;;;18.04;67.58;101480.53;5034077;28;20030;-49
2022/10/04 04:05:39;;;;;;;14.18;4.32;;;;;;;18.04;67.61;101487.84;5034023;28;20037;-49
2022/10/04 04:08:18;;;;;;;12.57;3.95;;;;;;;17.94;67.70;101485.78;5034254;28;20030;-48
2022/10/04 04:10:51;;;;;;;8.20;3.47;;;;;;;17.88;68.31;101482.16;5030859;28;20500;-46
2022/10/04 04:13:48;;;;;;;9.95;4.28;;;;;;;17.84;68.64;101491.78;5013908;28;20069;-50
2022/10/04 04:16:14;;;;;;;10.88;3.63;;;;;;;17.89;68.68;101491.91;5014449;28;20057;-47
2022/10/04 04:18:44;;;;;;;8.60;3.17;;;;;;;17.77;68.65;101483.00;5014669;28;20021;-50
2022/10/04 04:21:17;;;;;;;11.93;4.03;;;;;;;17.71;68.91;101488.47;5031516;28;20091;-47
2022/10/04 04:23:55;;;;;;;7.72;3.45;;;;;;;17.74;68.98;101490.75;5032794;28;20017;-47
2022/10/04 04:26:27;;;;;;;8.00;3.60;;;;;;;17.61;68.90;101489.91;5034057;28;20022;-50
2022/10/04 04:29:16;;;;;;;8.40;4.03;;;;;;;17.57;68.96;101496.03;5032825;28;20036;-46
2022/10/04 04:31:45;;;;;;;8.85;3.63;;;;;;;17.49;68.89;101494.53;5033689;28;20037;-52
2022/10/04 04:34:33;;;;;;;10.32;4.00;;;;;;;17.67;68.64;101498.97;5032598;28;20044;-47
2022/10/04 04:37:02;;;;;;;11.73;4.55;;;;;;;17.31;70.91;101495.44;5033023;28;20418;-46
2022/10/04 04:39:33;;;;;;;7.40;3.80;;;;;;;17.34;71.33;101496.88;5033208;28;20064;-50
2022/10/04 04:42:22;;;;;;;8.90;4.00;;;;;;;17.15;71.76;101505.06;5033600;28;20036;-48
2022/10/04 04:44:59;;;;;;;11.00;4.47;;;;;;;17.18;71.99;101501.09;5013794;28;20025;-48
2022/10/04 04:47:34;;;;;;;7.70;4.15;;;;;;;17.21;71.51;101499.78;5015813;28;20700;-48
2022/10/04 04:50:16;;;;;;;9.35;4.10;;;;;;;17.23;71.39;101501.22;5033425;28;20021;-47
2022/10/04 04:52:50;;;;;;;8.60;4.22;;;;;;;17.27;71.29;101496.16;5032624;28;20437;-49
2022/10/04 04:55:21;;;;;;;10.65;5.05;;;;;;;17.25;71.14;101504.50;5033319;28;20069;-48
2022/10/04 04:57:50;;;;;;;12.55;5.20;;;;;;;17.19;71.38;101502.72;5032377;28;20033;-50
2022/10/04 05:00:25;;;;;;;9.85;4.40;;;;;;;17.21;71.53;101505.19;5032504;28;20056;-47
2022/10/04 05:02:56;;;;;;;9.45;4.18;;;;;;;16.91;72.23;101510.69;5032986;28;20025;-50
2022/10/04 05:05:27;;;;;;;7.95;3.88;;;;;;;16.85;72.50;101513.25;5032796;28;20031;-49
2022/10/04 05:08:29;;;;;;;12.93;4.45;;;;;;;17.06;72.34;101516.47;5033320;28;20056;-46
2022/10/04 05:11:10;;;;;;;10.23;4.30;;;;;;;16.99;72.54;101518.44;5028201;28;20498;-45
2022/10/04 05:13:51;;;;;;;11.90;4.20;;;;;;;16.81;72.95;101516.66;5019455;28;20061;-48
2022/10/04 05:16:25;;;;;;;11.80;5.00;;;;;;;16.87;72.70;101518.41;5020635;28;20037;-49
2022/10/04 05:19:01;;;;;;;14.57;4.25;;;;;;;16.68;73.39;101519.53;5031946;28;20048;-50
2022/10/04 05:21:33;;;;;;;11.50;3.83;;;;;;;16.87;73.17;101524.66;5032440;28;20052;-47
2022/10/04 05:24:27;;;;;;;10.15;3.75;;;;;;;16.80;73.47;101517.69;5031540;28;20021;-50
2022/10/04 05:27:03;;;;;;;7.35;3.65;;;;;;;16.56;74.01;101528.41;5013792;28;20094;-49
2022/10/04 05:29:35;;;;;;;11.75;4.28;;;;;;;16.59;73.56;101521.72;5031613;28;20029;-47
2022/10/04 05:32:34;;;;;;;14.73;4.40;;;;;;;16.58;73.59;101522.78;5031396;28;20029;-49
2022/10/04 05:35:01;;;;;;;15.27;4.50;;;;;;;16.59;73.71;101519.00;5032640;28;20070;-50
2022/10/04 05:37:54;;;;;;;8.50;4.00;;;;;;;16.57;73.79;101526.53;5031443;28;20033;-49
2022/10/04 05:40:31;;;;;;;12.88;4.40;;;;;;;16.67;73.38;101521.41;5032243;28;20056;-50
2022/10/04 05:42:58;;;;;;;12.50;4.82;;;;;;;16.58;73.78;101511.97;5032296;28;20037;-47
2022/10/04 05:45:30;;;;;;;13.77;4.15;;;;;;;16.55;73.76;101512.44;5031163;28;20064;-50
2022/10/04 05:48:00;;;;;;;9.30;4.13;;;;;;;16.56;73.95;101519.47;5032063;28;20095;-47
2022/10/04 05:50:40;;;;;;;8.85;4.05;;;;;;;16.44;74.10;101519.44;5031561;28;20060;-48
2022/10/04 05:53:39;;;;;;;14.48;4.68;;;;;;;16.25;75.32;101524.03;5032259;28;20032;-48
2022/10/04 05:56:26;;;;;;;12.77;4.30;;;;;;;16.28;75.51;101520.06;5019045;28;20052;-50
2022/10/04 05:59:11;;;;;;;12.73;4.53;;;;;;;16.34;75.62;101514.56;5032354;28;20032;-50
2022/10/04 06:01:43;;;;;;;13.65;4.65;;;;;;;16.36;75.63;101517.84;5030851;28;20030;-50
2022/10/04 06:04:16;;;;;;;13.38;4.95;;;;;;;16.19;76.12;101507.91;5032222;28;20076;-50
2022/10/04 06:06:53;;;;;;;6.93;3.70;;;;;;;16.31;75.68;101511.47;5032057;28;20032;-48
2022/10/04 06:09:43;;;;;;;15.35;4.93;;;;;;;16.21;75.76;101503.94;5030976;28;20543;-49
2022/10/04 06:12:28;;;;;;;12.98;4.45;;;;;;;16.05;76.43;101502.69;5012203;28;20036;-47
2022/10/04 06:15:07;;;;;;;20.35;4.60;;;;;;;16.10;75.54;101508.22;5015817;28;20047;-45
2022/10/04 06:17:48;;;;;;;10.15;4.60;;;;;;;16.17;75.62;101505.44;5031536;28;20045;-46
2022/10/04 06:20:46;;;;;;;10.40;4.45;;;;;;;16.06;76.19;101507.03;5030945;28;20055;-49
2022/10/04 06:23:25;;;;;;;11.25;4.40;;;;;;;16.08;76.04;101507.59;5027357;28;20049;-48
2022/10/04 06:26:02;;;;;;;9.55;4.28;;;;;;;16.10;75.92;101505.53;5031088;28;20029;-46
2022/10/04 06:28:33;;;;;;;10.02;3.97;;;;;;;16.15;75.84;101512.09;5031035;28;20036;-47
2022/10/04 06:31:26;;;;;;;9.57;3.85;;;;;;;16.15;75.66;101512.09;5031013;28;20079;-46
2022/10/04 06:34:14;;;;;;;13.25;4.05;;;;;;;15.94;76.09;101516.94;5029733;28;20064;-45
2022/10/04 06:37:08;;;;;;;17.20;4.32;;;;;;;16.03;75.81;101510.16;5032110;28;20482;-46
2022/10/04 06:39:37;;;;;;;8.82;4.10;;;;;;;16.09;75.26;101503.03;5030623;28;20036;-48
2022/10/04 06:42:24;;;;;;;12.60;4.60;;;;;;;16.03;76.03;101507.47;5031366;28;20057;-47
2022/10/04 06:45:21;;;;;;;14.63;4.65;;;;;;;15.95;76.17;101507.78;5030153;28;20065;-44
2022/10/04 06:48:07;;;;;;;13.35;4.50;;;;;;;15.85;76.69;101510.16;5031465;28;20032;-44
2022/10/04 06:50:51;;;;;;;11.98;4.18;;;;;;;15.83;77.06;101501.47;5028871;28;20391;-44
2022/10/04 06:53:24;;;;;;;17.48;5.03;;;;;;;15.57;79.04;101495.28;5030195;28;20048;-46
2022/10/04 06:56:27;;;;;;;12.82;5.22;;;;;;;15.52;79.27;101497.81;5031264;28;20137;-43
2022/10/04 06:59:17;;;;;;;16.38;5.25;;;;;;;15.67;78.16;101494.78;5030510;28;20037;-47
2022/10/04 07:01:56;;;;;;;17.00;5.47;;;;;;;15.43;79.57;101498.31;5031109;28;20022;-45
2022/10/04 07:04:35;;;;;;;14.55;5.07;;;;;;;15.36;79.86;101492.97;5027958;28;20037;-44
2022/10/04 07:07:33;;;;;;;17.45;5.22;;;;;;;15.31;80.35;101495.50;5030743;28;20044;-44
2022/10/04 07:10:20;;;;;;;14.18;5.13;;;;;;;15.07;81.69;101486.41;5030527;28;20061;-44
2022/10/04 07:13:08;;;;;;;16.17;5.47;;;;;;;15.11;81.11;101484.91;5024347;28;20069;-43
2022/10/04 07:15:55;;;;;;;17.67;5.53;;;;;;;15.11;81.27;101486.78;5028927;28;20045;-45
2022/10/04 07:18:35;;;;;;;16.65;5.25;;;;;;;15.16;81.27;101489.66;5029457;28;20034;-46
2022/10/04 07:21:14;;;;;;;14.63;5.45;;;;;;;15.21;80.92;101489.78;5029770;28;20599;-44
2022/10/04 07:24:00;;;;;;;15.23;4.93;;;;;;;15.12;81.82;101488.44;5031052;28;20534;-45
2022/10/04 07:26:36;;;;;;;;;;;;;;;15.07;81.69;101489.09;5030863;28;20115;-47
2022/10/04 07:29:20;;;;;;;;;;;;;;;15.08;82.18;101485.34;5031402;28;19913;-45
2022/10/04 07:32:03;;;;;;;19.20;5.30;;;;;;;15.07;81.75;101481.00;5011704;28;19972;-44
2022/10/04 07:34:38;;;;;;;13.48;5.45;;;;;;;15.07;81.72;101486.41;5013169;28;20814;-44
2022/10/04 07:37:11;;;;;;;14.95;5.53;;;;;;;15.11;81.62;101484.91;5031177;28;20119;-46
2022/10/04 07:40:09;;;;;;;13.55;4.82;;;;;;;15.08;81.42;101487.22;5029268;28;20402;-47
2022/10/04 07:42:54;;;;;;;13.77;5.40;;;;;;;14.88;82.56;101495.44;5009685;28;20469;-44
2022/10/04 07:45:28;;;;;;;14.43;5.25;;;;;;;14.97;81.80;101488.75;5021571;28;20037;-46
2022/10/04 07:48:09;;;;;;;15.93;5.85;;;;;;;15.07;81.30;101486.41;5034614;28;20077;-43
2022/10/04 07:50:46;;;;;;;13.73;4.88;;;;;;;14.95;81.70;101486.28;5032217;28;20033;-47
2022/10/04 07:53:39;;;;;;;11.82;5.40;;;;;;;14.89;82.24;101487.16;5032545;28;20025;-43
2022/10/04 07:56:17;;;;;;;12.32;5.47;;;;;;;15.04;81.66;101490.34;5033347;28;20037;-47
2022/10/04 07:58:58;;;;;;;14.73;5.85;;;;;;;15.04;81.58;101484.94;5033442;28;20061;-45
2022/10/04 08:01:44;;;;;;;20.40;5.75;;;;;;;14.92;82.51;101472.41;5032878;28;20037;-44
2022/10/04 08:04:10;;;;;;;16.10;5.22;;;;;;;14.87;82.38;101472.25;5033291;28;20078;-46
2022/10/04 08:06:58;;;;;;;15.75;5.72;;;;;;;14.85;82.76;101469.78;5034359;28;20061;-44
2022/10/04 08:09:51;;;;;;;15.45;5.93;;;;;;;15.00;82.51;101470.28;5032130;28;20393;-44
2022/10/04 08:12:48;;;;;;;19.80;5.18;;;;;;;15.06;82.22;101468.56;5031265;28;20044;-47
2022/10/04 08:15:14;;;;;;;15.02;5.93;;;;;;;15.01;82.90;101468.41;5034155;28;20021;-45
2022/10/04 08:18:09;;;;;;;16.42;5.38;;;;;;;15.22;81.67;101465.31;5032897;28;20033;-46
2022/10/04 08:21:05;;;;;;;13.68;5.25;;;;;;;15.01;82.18;101465.72;5025761;28;20034;-48
2022/10/04 08:23:31;;;;;;;;;;;;;;;14.91;83.22;101465.38;5031843;28;20375;-47
2022/10/04 08:26:23;;;;;;;13.77;5.50;;;;;;;14.95;82.71;101462.03;5030552;28;20365;-45
2022/10/04 08:32:03;;;;;;;10.35;5.68;;;;;;;15.24;82.14;101455.13;5026235;28;20164;-44
2022/10/04 08:35:00;;;;;;;16.85;6.15;;;;;;;15.24;82.05;101457.81;5033900;28;20065;-47
2022/10/04 08:37:58;;;;;;;11.40;5.85;;;;;;;15.20;82.35;101466.56;5031526;28;20029;-44
2022/10/04 08:41:01;;;;;;;13.05;6.20;;;;;;;15.23;82.12;101466.16;5018593;28;20512;-46
2022/10/04 08:43:45;;;;;;;12.02;5.72;;;;;;;15.42;81.50;101464.28;5020261;28;20068;-47
2022/10/04 08:46:42;;;;;;;19.50;6.20;;;;;;;15.30;82.03;101466.91;5020137;28;20030;-45
2022/10/04 08:49:46;;;;;;;17.15;5.50;;;;;;;15.41;81.12;101466.16;5013815;28;20581;-46
2022/10/04 08:52:37;;;;;;;16.13;5.65;;;;;;;15.43;81.42;101468.63;5015204;28;20144;-45
2022/10/04 08:55:47;;;;;;;14.23;5.57;;;;;;;15.49;81.11;101468.59;5032563;28;20049;-46
2022/10/04 08:58:35;;;;;;;13.98;5.75;;;;;;;15.40;81.33;101469.91;5022365;28;20037;-47
2022/10/04 09:01:07;;;;;;;17.00;6.40;;;;;;;15.42;81.25;101465.13;5027544;28;20028;-47
2022/10/04 09:04:00;;;;;;;13.15;5.72;;;;;;;15.51;80.71;101466.50;5033304;28;20036;-45
2022/10/04 09:06:26;;;;;;;14.23;5.32;;;;;;;15.58;80.16;101469.09;5033224;28;20053;-46
2022/10/04 09:09:20;;;;;;;12.32;6.43;;;;;;;15.53;79.83;101472.47;5033074;28;20017;-48
2022/10/04 09:12:00;;;;;;;14.90;5.70;;;;;;;15.45;80.41;101470.09;5013131;28;20047;-44
2022/10/04 09:14:35;;;;;;;15.20;5.75;;;;;;;15.49;80.10;101463.19;5013515;28;20030;-47
2022/10/04 09:17:20;;;;;;;12.02;5.80;;;;;;;15.49;79.64;101471.28;5012883;28;20174;-47
2022/10/04 09:20:01;;;;;;;14.73;5.30;;;;;;;15.46;79.75;101471.72;5013040;28;20030;-43
2022/10/04 09:22:56;;;;;;;15.18;5.63;;;;;;;15.38;79.95;101474.72;5012873;28;20032;-46
2022/10/04 09:25:38;;;;;;;13.18;5.53;;;;;;;15.43;79.49;101477.56;5013016;28;20040;-45
2022/10/04 09:28:15;;;;;;;12.80;5.72;;;;;;;15.35;79.82;101475.16;5030197;28;20037;-46
2022/10/04 09:31:03;;;;;;;14.98;5.40;;;;;;;15.34;80.05;101468.13;5037761;23;20041;-48
2022/10/04 09:33:32;;;;;;;14.57;6.45;;;;;;;15.36;79.99;101471.41;5032459;28;20026;-47
2022/10/04 09:36:29;;;;;;;21.77;6.20;;;;;;;15.45;79.73;101469.25;5019802;28;20026;-47
2022/10/04 09:39:16;;;;;;;9.20;5.30;;;;;;;15.43;80.24;101474.03;5016709;28;20025;-44
2022/10/04 09:42:17;;;;;;;20.40;5.63;;;;;;;15.38;80.00;101471.16;5032314;28;20029;-45
2022/10/04 09:44:45;;;;;;;15.20;5.65;;;;;;;15.25;80.52;101469.44;4990395;28;20148;-45
2022/10/04 09:47:47;;;;;;;11.73;6.40;;;;;;;15.16;80.49;101462.69;5031950;28;20029;-45
2022/10/04 09:50:34;;;;;;;16.50;5.25;;;;;;;15.23;80.32;101460.75;5024992;28;20037;-44
2022/10/04 09:53:03;;;;;;;11.02;5.35;;;;;;;15.21;80.37;101463.69;5031947;28;20091;-48
2022/10/04 09:56:08;;;;;;;15.82;5.40;;;;;;;15.23;80.40;101464.28;5021868;28;20033;-44
2022/10/04 09:58:50;;;;;;;15.25;5.85;;;;;;;15.27;80.32;101462.78;5026423;28;20096;-45
2022/10/04 10:01:49;;;;;;;14.82;5.20;;;;;;;15.32;80.31;101459.41;5032261;28;20083;-43
2022/10/04 10:04:43;;;;;;;17.00;5.85;;;;;;;15.29;80.03;101467.94;5032153;28;20110;-43
2022/10/04 10:07:31;;;;;;;15.43;4.70;;;;;;;15.32;79.83;101457.56;5031013;28;20132;-47
2022/10/04 10:13:55;;;;;;;14.68;4.93;;;;;;;15.21;79.86;101454.75;5014483;28;20060;-43
2022/10/04 10:16:39;;;;;;;13.85;4.70;;;;;;;15.25;79.84;101453.25;5019674;28;20045;-44
2022/10/04 10:19:44;;;;;;;15.27;5.75;;;;;;;15.33;80.15;101452.97;5044541;28;20041;-46
2022/10/04 10:22:37;;;;;;;12.52;5.28;;;;;;;15.38;79.61;101447.75;5024890;28;20026;-44
2022/10/04 10:25:20;;;;;;;15.38;5.40;;;;;;;15.38;79.74;101446.91;5032667;28;20034;-44
2022/10/04 10:28:01;;;;;;;13.05;5.60;;;;;;;15.47;79.21;101453.66;5019709;28;20037;-43
2022/10/04 10:30:46;;;;;;;12.98;5.32;;;;;;;15.26;80.18;101457.59;5031487;28;20412;-43
2022/10/04 10:33:19;;;;;;;17.52;5.78;;;;;;;15.16;80.54;101450.03;5031365;28;20033;-44
2022/10/04 10:36:22;;;;;;;15.50;5.90;;;;;;;15.25;80.50;101453.25;5031222;28;20028;-46
2022/10/04 10:39:20;;;;;;;9.93;5.68;;;;;;;15.19;80.26;101454.16;5020286;28;20045;-47
2022/10/04 10:42:15;;;;;;;12.57;5.13;;;;;;;15.28;80.02;101456.34;5011752;28;20030;-44
2022/10/04 10:45:09;;;;;;;17.02;5.80;;;;;;;15.36;79.45;101444.44;5011663;28;20038;-44
2022/10/04 10:47:51;;;;;;;11.98;4.75;;;;;;;15.32;79.47;101452.16;5030954;28;20459;-45
2022/10/04 10:50:26;;;;;;;15.00;5.93;;;;;;;15.35;79.03;101445.47;5032830;28;20160;-44
2022/10/04 10:53:19;;;;;;;9.68;5.63;;;;;;;15.20;80.11;101453.09;5023986;28;20026;-48
2022/10/04 10:56:00;;;;;;;12.43;5.95;;;;;;;15.24;79.85;101443.53;5011927;28;20108;-46
2022/10/04 10:58:44;;;;;;;15.00;5.93;;;;;;;15.24;79.83;101452.44;5018650;28;20033;-45
2022/10/04 11:01:28;;;;;;;12.20;4.72;;;;;;;15.30;79.82;101446.16;5031015;28;20029;-45
2022/10/04 11:04:28;;;;;;;13.30;5.78;;;;;;;15.28;79.50;101439.34;5031386;28;20127;-44
2022/10/04 11:07:29;;;;;;;12.15;4.82;;;;;;;15.21;79.61;101446.66;5031599;28;20026;-47
2022/10/04 11:10:20;;;;;;;11.48;5.18;;;;;;;15.31;79.28;101449.66;4988420;28;20173;-43
2022/10/04 11:13:01;;;;;;;11.48;5.53;;;;;;;15.14;80.30;101448.59;5020100;28;20046;-43
2022/10/04 11:16:20;;;;;;;16.33;4.93;;;;;;;15.02;80.22;101460.09;5011853;28;21233;-43
2022/10/04 11:19:28;;;;;;;13.40;5.90;;;;;;;15.13;79.90;101455.84;4993524;28;20502;-46
2022/10/04 11:22:16;;;;;;;11.38;5.13;;;;;;;14.92;80.59;101459.75;5031376;28;20040;-46
2022/10/04 11:24:51;;;;;;;9.50;5.30;;;;;;;15.05;79.91;101462.34;5023937;28;20057;-45
2022/10/04 11:27:27;;;;;;;10.82;5.32;;;;;;;15.09;79.59;101464.59;5030699;28;20045;-46
2022/10/04 11:30:22;;;;;;;13.50;5.63;;;;;;;15.14;79.19;101462.88;5028294;28;20041;-48
2022/10/04 11:33:25;;;;;;;11.02;4.82;;;;;;;15.16;78.83;101455.44;5035204;28;20029;-45
2022/10/04 11:36:09;;;;;;;15.75;5.60;;;;;;;15.04;79.09;101462.56;5029503;28;20057;-46
2022/10/04 11:39:02;;;;;;;13.43;5.38;;;;;;;15.13;78.88;101461.25;5034018;28;20033;-47
2022/10/04 11:42:16;;;;;;;12.95;4.97;;;;;;;14.92;79.51;101456.25;5034581;28;20025;-46
2022/10/04 11:45:01;;;;;;;15.32;4.97;;;;;;;14.92;79.52;101456.25;5024532;28;20049;-44
2022/10/04 11:47:59;;;;;;;7.85;4.40;;;;;;;14.96;79.22;101455.59;5041949;28;20120;-44
2022/10/04 11:51:14;;;;;;;10.07;4.50;;;;;;;14.92;79.65;101458.94;5039510;28;20033;-48
2022/10/04 11:54:29;;;;;;;9.57;5.07;;;;;;;14.98;79.55;101461.56;5034587;28;20426;-45
2022/10/04 11:57:39;;;;;;;14.15;4.90;;;;;;;15.02;79.56;101461.97;5037353;28;20134;-44
2022/10/04 12:00:19;;;;;;;15.65;5.13;;;;;;;15.08;79.52;101462.94;5024682;28;20394;-44
2022/10/04 12:03:09;;;;;;;12.25;4.90;;;;;;;15.15;79.11;101461.84;5034720;28;20033;-44
2022/10/04 12:05:50;;;;;;;11.75;4.90;;;;;;;15.19;79.03;101462.22;5022166;28;20021;-47
2022/10/04 12:08:22;;;;;;;9.38;4.75;;;;;;;15.26;79.05;101468.38;5033629;28;20144;-44
2022/10/04 12:11:04;;;;;;;12.25;4.82;;;;;;;15.35;78.76;101469.75;5032633;28;20029;-43
2022/10/04 12:14:08;;;;;;;10.48;4.45;;;;;;;15.27;78.44;101470.06;5035983;28;20463;-46
2022/10/04 12:17:05;;;;;;;11.07;4.65;;;;;;;15.25;78.30;101466.75;5042631;28;20382;-48
2022/10/04 12:19:51;;;;;;;11.77;5.03;;;;;;;15.28;78.02;101467.13;5036297;28;20546;-47
2022/10/04 12:22:28;;;;;;;10.68;4.65;;;;;;;15.32;77.93;101467.50;5034398;28;20068;-43
2022/10/04 12:25:52;;;;;;;10.45;4.53;;;;;;;15.37;77.96;101478.44;5031349;28;20084;-44
2022/10/04 12:28:27;;;;;;;12.65;4.47;;;;;;;15.44;77.64;101478.41;4973194;28;20094;-43
2022/10/04 12:31:25;;;;;;;12.30;4.20;;;;;;;15.48;77.06;101491.19;4969383;28;20062;-47
2022/10/04 12:34:15;;;;;;;11.90;4.65;;;;;;;15.39;77.11;101491.72;5022258;28;20649;-48
2022/10/04 12:37:09;;;;;;;12.00;4.10;;;;;;;15.46;77.12;101489.78;5017618;28;20037;-47
2022/10/04 12:40:19;;;;;;;13.07;4.40;;;;;;;15.48;77.16;101502.00;5033586;28;20120;-44